NEW HOGAN LAKE (NHG)

Elevation: 554' · CALAVERAS R basin · Operator: US Army Corps of Engineers

Provisional data, subject to change.
Query executed Sunday at 3:29:46   clock

Select a sensor type for a plot of data.
Note: Reservoir Flows are daily averages.

Earlier

Date RES ELE    STORAGE    RES CHG    TOC STO    ABV TOC    OUTFLOW    INFLOW    FNF    PPT INC    TEMP MN    TEMP MX   
 FEET   AF   AF   AF   AF   CFS   CFS   CFS   INCHES   DEG F   DEG F  
03/20/2015 628.38 65921 -88 217100 -151179 33 -3 -3 0.00 8 25
03/21/2015 628.36 65886 -35 219141 -153255 31 21 21 0.00 8 23
03/22/2015 628.32 65816 -70 221182 -155366 31 3 3 0.00 12 20
03/23/2015 628.31 65799 -17 223222 -157423 31 30 30 0.00 11 18
03/24/2015 628.26 65711 -88 225263 -159552 31 -7 -7 0.00 7 19
03/25/2015 628.25 65694 -17 227304 -161610 31 31 31 0.00 7 23
03/26/2015 628.22 65641 -53 229345 -163704 30 14 14 0.02 11 29
03/27/2015 628.19 65589 -52 231386 -165797 27 12 12 0.00 11 28
03/28/2015 -- -- -- -- -- -- -- -- -- -- --
03/29/2015 628.13 65484 -- 235467 -- 27 12 -- 0.00 10 28
03/30/2015 628.11 65449 -- 237508 -- 27 21 -- 0.01 10 29
03/31/2015 628.06 65362 --r 239549 -- 35 1 1 0.00 9 22
04/01/2015 628.00 65258 -- 241590 -176332 42 -2 -2 0.00 6 19
04/02/2015 627.95 65170 -88 243631 -178461 34 1 1 0.00 6 21
04/03/2015 627.92 65118 -52 245671 -180553 30 15 15 0.00 5 24
04/04/2015 627.88 65049 -69 247712 -182663 30 6 6 0.00 4 22
04/05/2015 627.84 64979 -70 249753 -184774 37 6 6 0.00 6 16
04/06/2015 627.78 64875 -104 251794 -186919 43 -1 -1 0.00 3 18
04/07/2015 627.81 64927 52 253835 -188908 35 65 65 0.67 7 13
04/08/2015 627.80 64910 -17 255876 -190966 33 32 32 0.12 6 17
04/09/2015 627.79 64892 -18 257916 -193024 39 39 39 0.00 5 21
04/10/2015 627.76 64840 -52 259957 -195117 35 20 20 0.01 7 23
04/11/2015 627.72 64771 -69 261998 -197227 35 11 11 0.00 7 22
04/12/2015 627.69 64719 -52 264039 -199320 35 21 21 0.01 9 24
04/13/2015 627.65 64650 -- 266080 -- 35 14 14 0.01 9 27
04/14/2015 627.60 64563 -- 268120 -- 31 -2 -2 0.00 7 18
04/15/2015 627.56 64494 -69 270161 -205667 33 9 9 0.00 3 23
04/16/2015 627.52 64425 -69 272202 -207777 45 23 23 0.00 7 26
04/17/2015 627.45 64304 -121 274243 -209939 47 -0 -- 0.00 9 28
04/18/2015 627.40 64218 -86 276284 -- 47 17 -- 0.00 10 28
04/19/2015 -- -- -- -- -- -- -- -- -- -- --

Later | Latest

Warning! This data is preliminary and subject to revision.

Show NHG Map | Plot NHG Data | 1 Month NHG Data | Real-Time NHG Data | NHG Info